createdAt,value
2018-02-13T00:00:34.648Z,2.77
2018-02-13T00:05:36.019Z,2.75
2018-02-13T00:10:37.604Z,2.73
2018-02-13T00:15:39.658Z,2.73
2018-02-13T00:20:41.100Z,2.62
2018-02-13T00:25:42.475Z,2.60
2018-02-13T00:30:43.795Z,2.62
2018-02-13T00:35:45.152Z,2.65
2018-02-13T00:40:46.523Z,2.65
2018-02-13T00:45:47.884Z,2.65
2018-02-13T00:50:49.331Z,2.69
2018-02-13T00:55:50.679Z,2.66
2018-02-13T01:00:52.078Z,2.65
2018-02-13T01:05:53.506Z,2.61
2018-02-13T01:10:54.880Z,2.66
2018-02-13T01:15:56.193Z,2.65
2018-02-13T01:20:58.327Z,2.56
2018-02-13T01:25:59.692Z,2.53
2018-02-13T01:31:01.830Z,2.59
2018-02-13T01:36:03.221Z,2.53
2018-02-13T01:41:04.678Z,2.58
2018-02-13T01:46:06.755Z,2.58
2018-02-13T01:51:08.107Z,2.50
2018-02-13T01:56:09.436Z,2.40
2018-02-13T02:01:10.834Z,2.38
2018-02-13T02:06:12.198Z,2.37
2018-02-13T02:11:13.559Z,2.35
2018-02-13T02:16:14.918Z,2.32
2018-02-13T02:21:16.322Z,2.35
2018-02-13T02:26:17.689Z,2.37
2018-02-13T02:31:19.020Z,2.34
2018-02-13T02:36:20.387Z,2.38
2018-02-13T02:41:22.482Z,2.37
2018-02-13T02:46:23.817Z,2.37
2018-02-13T02:51:26.951Z,2.35
2018-02-13T02:56:28.308Z,2.29
2018-02-13T03:01:29.630Z,2.33
2018-02-13T03:06:30.980Z,2.31
2018-02-13T03:11:32.327Z,2.22
2018-02-13T03:16:33.680Z,2.17
2018-02-13T03:21:35.779Z,2.17
2018-02-13T03:26:37.867Z,2.18
2018-02-13T03:31:39.226Z,2.07
2018-02-13T03:36:40.646Z,2.09
2018-02-13T03:41:41.983Z,2.06
2018-02-13T03:46:43.353Z,2.01
2018-02-13T03:51:45.439Z,2.06
2018-02-13T03:56:46.784Z,2.02
2018-02-13T04:01:48.120Z,2.05
2018-02-13T04:06:49.566Z,2.11
2018-02-13T04:11:50.973Z,2.12
2018-02-13T04:16:52.300Z,2.08
2018-02-13T04:21:54.372Z,2.00
2018-02-13T04:26:55.775Z,1.84
2018-02-13T04:31:57.139Z,1.86
2018-02-13T04:36:59.920Z,1.82
2018-02-13T04:42:01.393Z,1.87
2018-02-13T04:47:03.115Z,1.85
2018-02-13T04:52:04.490Z,1.83
2018-02-13T04:57:06.564Z,1.90
2018-02-13T05:02:07.982Z,1.83
2018-02-13T05:07:09.383Z,1.78
2018-02-13T05:12:11.438Z,1.77
2018-02-13T05:17:12.770Z,1.74
2018-02-13T05:22:14.150Z,1.86
2018-02-13T05:27:15.588Z,1.82
2018-02-13T05:32:16.920Z,1.76
2018-02-13T05:37:18.416Z,1.79
2018-02-13T05:42:19.817Z,1.78
2018-02-13T05:47:21.821Z,1.74
2018-02-13T05:52:23.288Z,1.77
2018-02-13T05:57:24.630Z,1.79
2018-02-13T06:02:25.969Z,1.79
2018-02-13T06:07:27.338Z,1.75
2018-02-13T06:12:28.693Z,1.82
2018-02-13T06:17:30.762Z,1.77
2018-02-13T06:22:32.125Z,1.72
2018-02-13T06:27:33.463Z,1.68
2018-02-13T06:32:34.790Z,1.70
2018-02-13T06:37:36.133Z,1.72
2018-02-13T06:42:37.462Z,1.70
2018-02-13T06:47:38.814Z,1.71
2018-02-13T06:52:40.158Z,1.77
2018-02-13T06:57:41.488Z,1.78
2018-02-13T07:02:42.846Z,1.87
2018-02-13T07:07:44.177Z,1.93
2018-02-13T07:12:45.514Z,1.98
2018-02-13T07:17:46.965Z,2.15
2018-02-13T07:22:48.278Z,2.23
2018-02-13T07:27:49.619Z,2.38
2018-02-13T07:32:50.950Z,2.57
2018-02-13T07:37:53.026Z,2.95
2018-02-13T07:42:54.354Z,3.30
2018-02-13T07:47:55.738Z,3.49
2018-02-13T07:53:03.959Z,3.74
2018-02-13T07:58:05.324Z,3.83
2018-02-13T08:03:06.666Z,3.80
2018-02-13T08:08:08.028Z,3.83
2018-02-13T08:13:09.343Z,3.83
2018-02-13T08:18:11.439Z,3.90
2018-02-13T08:23:13.500Z,3.76
2018-02-13T08:28:14.877Z,3.79
2018-02-13T08:33:16.230Z,3.84
2018-02-13T08:38:18.371Z,3.93
2018-02-13T08:43:19.743Z,4.02
2018-02-13T08:48:21.086Z,4.14
2018-02-13T08:53:22.426Z,4.33
2018-02-13T08:58:23.781Z,4.44
2018-02-13T09:03:25.937Z,4.46
2018-02-13T09:08:27.308Z,4.52
2018-02-13T09:13:29.485Z,4.55
2018-02-13T09:18:30.857Z,4.60
2018-02-13T09:23:32.176Z,4.66
2018-02-13T09:28:33.540Z,4.66
2018-02-13T09:33:34.894Z,4.72
2018-02-13T09:38:36.260Z,4.88
2018-02-13T09:43:38.327Z,5.00
2018-02-13T09:48:39.691Z,5.13
2018-02-13T09:53:41.043Z,5.27
2018-02-13T09:58:43.146Z,5.32
2018-02-13T10:03:45.236Z,5.39
2018-02-13T10:08:46.578Z,5.47
2018-02-13T10:13:54.868Z,5.49
2018-02-13T10:18:56.277Z,5.56
2018-02-13T10:23:57.627Z,5.60
2018-02-13T10:28:58.934Z,5.74
2018-02-13T10:34:00.292Z,5.76
2018-02-13T10:39:01.677Z,5.85
2018-02-13T10:44:03.063Z,5.96
2018-02-13T10:49:04.439Z,6.04
2018-02-13T10:54:05.740Z,6.13
2018-02-13T10:59:07.114Z,6.18
2018-02-13T11:04:09.192Z,6.27
2018-02-13T11:09:10.538Z,6.31
2018-02-13T11:14:11.895Z,6.42
2018-02-13T11:19:14.003Z,6.52
2018-02-13T11:24:15.370Z,6.56
2018-02-13T11:29:16.738Z,6.69
2018-02-13T11:34:18.106Z,6.80
2018-02-13T11:39:20.426Z,6.96
2018-02-13T11:44:21.766Z,6.99
2018-02-13T11:49:23.269Z,7.21
2018-02-13T11:54:24.614Z,7.32
2018-02-13T11:59:25.977Z,7.35
2018-02-13T12:04:27.297Z,7.40
2018-02-13T12:09:28.638Z,7.54
2018-02-13T12:14:30.047Z,7.69
2018-02-13T12:19:31.417Z,7.75
2018-02-13T12:24:33.526Z,7.82
2018-02-13T12:29:35.637Z,7.74
2018-02-13T12:34:37.754Z,7.84
2018-02-13T12:39:39.142Z,7.92
2018-02-13T12:44:40.483Z,7.88
2018-02-13T12:49:41.852Z,7.88
2018-02-13T12:54:43.181Z,7.92
2018-02-13T12:59:44.533Z,7.94
2018-02-13T13:04:45.982Z,7.91
2018-02-13T13:09:47.364Z,8.19
2018-02-13T13:14:49.441Z,8.25
2018-02-13T13:19:50.811Z,8.38
2018-02-13T13:24:52.217Z,8.42
2018-02-13T13:29:53.620Z,8.30
2018-02-13T13:34:54.995Z,8.31
2018-02-13T13:39:56.413Z,8.17
2018-02-13T13:44:57.840Z,8.29
2018-02-13T13:49:59.262Z,8.29
2018-02-13T13:55:01.877Z,8.33
2018-02-13T14:00:03.320Z,8.24
2018-02-13T14:05:05.519Z,8.21
2018-02-13T14:10:06.894Z,8.13
2018-02-13T14:15:08.365Z,8.15
2018-02-13T14:20:09.812Z,8.03
2018-02-13T14:25:11.924Z,8.01
2018-02-13T14:30:13.323Z,7.93
2018-02-13T14:35:14.674Z,7.84
2018-02-13T14:40:16.068Z,7.74
2018-02-13T14:45:17.476Z,7.83
2018-02-13T14:50:19.690Z,7.79
2018-02-13T14:55:21.748Z,7.77
2018-02-13T15:00:23.154Z,7.74
2018-02-13T15:05:24.476Z,7.70
2018-02-13T15:10:26.623Z,7.71
2018-02-13T15:15:28.054Z,7.72
2018-02-13T15:20:29.470Z,7.58
2018-02-13T15:25:30.790Z,7.58
2018-02-13T15:30:32.202Z,7.70
2018-02-13T15:35:33.547Z,7.78
2018-02-13T15:40:34.940Z,7.75
2018-02-13T15:45:36.292Z,7.72
2018-02-13T15:50:37.659Z,7.65
2018-02-13T15:55:39.027Z,7.59
2018-02-13T16:00:40.372Z,7.44
2018-02-13T16:05:42.452Z,7.31
2018-02-13T16:10:43.786Z,7.08
2018-02-13T16:15:45.922Z,6.91
2018-02-13T16:20:47.259Z,6.73
2018-02-13T16:25:48.629Z,6.58
2018-02-13T16:30:49.958Z,6.36
2018-02-13T16:35:52.074Z,6.19
2018-02-13T16:40:53.484Z,6.02
2018-02-13T16:45:54.867Z,5.92
2018-02-13T16:50:56.234Z,5.80
2018-02-13T16:56:05.390Z,5.69
2018-02-13T17:01:06.816Z,5.56
2018-02-13T17:06:08.155Z,5.46
2018-02-13T17:11:09.518Z,5.33
2018-02-13T17:16:10.956Z,5.30
2018-02-13T17:21:12.299Z,5.20
2018-02-13T17:26:13.685Z,5.12
2018-02-13T17:31:16.759Z,5.06
2018-02-13T17:36:18.104Z,4.90
2018-02-13T17:41:19.450Z,4.95
2018-02-13T17:46:20.979Z,4.83
2018-02-13T17:51:22.422Z,4.50
2018-02-13T17:56:23.773Z,4.51
2018-02-13T18:01:25.169Z,4.39
2018-02-13T18:06:26.470Z,4.29
2018-02-13T18:11:27.825Z,4.22
2018-02-13T18:16:29.140Z,4.05
2018-02-13T18:21:30.578Z,4.17
2018-02-13T18:26:31.970Z,4.08
2018-02-13T18:31:33.511Z,3.91
2018-02-13T18:36:34.959Z,3.74
2018-02-13T18:41:37.290Z,3.74
2018-02-13T18:46:39.347Z,3.78
2018-02-13T18:51:40.973Z,3.86
2018-02-13T18:56:43.046Z,3.64
2018-02-13T19:01:44.411Z,3.78
2018-02-13T19:06:45.779Z,3.91
2018-02-13T19:11:47.102Z,3.89
2018-02-13T19:21:51.310Z,3.78
2018-02-13T19:26:52.693Z,3.77
2018-02-13T19:31:54.089Z,3.61
2018-02-13T19:36:55.645Z,3.41
2018-02-13T19:41:57.767Z,3.19
2018-02-13T19:46:59.283Z,3.28
2018-02-13T19:52:00.886Z,3.04
2018-02-13T19:57:02.498Z,3.32
2018-02-13T20:02:03.883Z,3.34
2018-02-13T20:07:05.400Z,3.41
2018-02-13T20:12:06.844Z,3.34
2018-02-13T20:17:08.175Z,3.37
2018-02-13T20:22:09.523Z,3.18
2018-02-13T20:27:11.006Z,3.26
2018-02-13T20:32:12.367Z,3.12
2018-02-13T20:37:14.505Z,3.09
2018-02-13T20:42:16.884Z,2.92
2018-02-13T20:47:19.039Z,2.85
2018-02-13T20:52:21.000Z,3.00
2018-02-13T20:57:22.343Z,2.90
2018-02-13T21:02:23.668Z,3.07
2018-02-13T21:07:24.968Z,3.01
2018-02-13T21:12:27.404Z,3.01
2018-02-13T21:17:29.298Z,3.02
2018-02-13T21:22:30.916Z,2.85
2018-02-13T21:27:32.377Z,2.77
2018-02-13T21:32:33.770Z,2.52
2018-02-13T21:37:35.134Z,2.56
2018-02-13T21:42:36.621Z,2.52
2018-02-13T21:47:37.942Z,2.53
2018-02-13T21:52:39.258Z,2.36
2018-02-13T21:57:40.646Z,2.28
2018-02-13T22:02:42.087Z,2.40
2018-02-13T22:07:43.455Z,2.38
2018-02-13T22:12:44.787Z,2.24
2018-02-13T22:17:46.246Z,2.16
2018-02-13T22:22:47.588Z,2.18
2018-02-13T22:27:49.662Z,2.03
2018-02-13T22:32:51.007Z,2.11
2018-02-13T22:37:52.460Z,2.23
2018-02-13T22:42:53.921Z,2.12
2018-02-13T22:47:55.405Z,2.07
2018-02-13T22:52:56.843Z,2.22
2018-02-13T22:57:58.181Z,1.97
2018-02-13T23:02:59.551Z,1.84
2018-02-13T23:08:01.072Z,1.98
2018-02-13T23:13:02.499Z,1.84
2018-02-13T23:18:03.820Z,2.01
2018-02-13T23:23:05.182Z,1.86
2018-02-13T23:28:06.575Z,1.73
2018-02-13T23:33:07.950Z,1.86
2018-02-13T23:38:09.286Z,1.98
2018-02-13T23:43:10.642Z,1.89
2018-02-13T23:48:12.776Z,1.91
2018-02-13T23:53:14.139Z,1.92
2018-02-13T23:58:15.467Z,1.77
